Concerto — JJ3855 — position and weather

sailwx.info

Track history (hours):
 
Tides and Currents Weather Stations Pressure Air Temp Water Temp Dewpoint Dewpoint Depression Visibility Wind Speed Wind Dir Waves Ship Positions

Concerto

Last reported at 2016-Sep-28 08:33 UTC. Time now 2016-Oct-01 13:49 UTC.
Position N 34°37' E 135°08'.

Length 74 m; draft 3 m.

Type: Passenger vessel. MMSI: 431000448.

Date/timePositionNaut miles runAvg speedWind from/ knotsBaromVisibWave heightAir tempDewpointWater temp
2016-Sep-28 08:33N 34°37' E 135°08'2 0.4
2016-Sep-28 03:33N 34°38' E 135°10'3 2.7
2016-Sep-28 02:30N 34°41' E 135°11'0 0.0
2016-Sep-28 01:30N 34°41' E 135°11'0 0.0
2016-Sep-27 23:30N 34°41' E 135°11'0 0.0
2016-Sep-27 19:30N 34°41' E 135°11'0 0.0
2016-Sep-27 14:30N 34°41' E 135°11'0 0.0
2016-Sep-27 13:30N 34°41' E 135°11'3 1.0
2016-Sep-27 10:33N 34°38' E 135°10'0 0.0
2016-Sep-26 11:33N 34°38' E 135°10'2 0.8
2016-Sep-26 08:33N 34°37' E 135°07'5 0.8
2016-Sep-26 02:24N 34°41' E 135°11'0 0.0
2016-Sep-26 01:30N 34°41' E 135°11'0 0.0
2016-Sep-26 00:24N 34°41' E 135°11'0 0.0
2016-Sep-25 21:24N 34°41' E 135°11'0 0.0
2016-Sep-25 17:24N 34°41' E 135°11'0 0.0
2016-Sep-25 16:30N 34°41' E 135°11'0 0.0
2016-Sep-25 15:24N 34°41' E 135°11'0 0.0
2016-Sep-25 14:24N 34°41' E 135°11'0 0.0
2016-Sep-25 12:30N 34°41' E 135°11'3 3.6
2016-Sep-25 11:33N 34°37' E 135°10'1 0.6
2016-Sep-25 10:33N 34°38' E 135°10'3 2.7
2016-Sep-25 09:29N 34°41' E 135°11'0 0.0
2016-Sep-25 07:33N 34°41' E 135°11'1 0.5
2016-Sep-25 04:33N 34°39' E 135°11'1 0.4
2016-Sep-25 00:32N 34°41' E 135°11'0 0.0
2016-Sep-24 22:32N 34°41' E 135°11'0 0.0
2016-Sep-24 21:20N 34°41' E 135°11'0 0.0
2016-Sep-24 19:32N 34°41' E 135°11'0 0.0
2016-Sep-24 18:32N 34°41' E 135°11'0 0.0
2016-Sep-24 17:32N 34°41' E 135°11'0 0.0
2016-Sep-24 16:26N 34°41' E 135°11'0 0.0
2016-Sep-24 14:32N 34°41' E 135°11'0 0.0
2016-Sep-24 12:26N 34°41' E 135°11'3 1.5
2016-Sep-24 10:33N 34°38' E 135°10'3 2.7
2016-Sep-24 09:29N 34°41' E 135°11'3 0.5
2016-Sep-24 03:33N 34°38' E 135°10'3 2.6
2016-Sep-24 02:29N 34°41' E 135°11'0 0.0
2016-Sep-24 01:29N 34°41' E 135°11'0 0.0
2016-Sep-24 00:29N 34°41' E 135°11'0 0.0
2016-Sep-23 19:29N 34°41' E 135°11'0 0.0
2016-Sep-23 17:29N 34°41' E 135°11'0 0.0
2016-Sep-23 16:29N 34°41' E 135°11'0 0.0
2016-Sep-23 15:29N 34°41' E 135°11'0 0.0
2016-Sep-23 13:29N 34°41' E 135°11'0 0.0
2016-Sep-23 09:31N 34°41' E 135°11'3 0.8
2016-Sep-23 06:33N 34°38' E 135°11'1 0.4
2016-Sep-23 04:33N 34°39' E 135°11'2 1.9
2016-Sep-23 03:33N 34°38' E 135°10'2 0.1
2016-Sep-22 04:33N 34°39' E 135°11'2 1.8
2016-Sep-22 03:33N 34°38' E 135°10'3 1.1
2016-Sep-22 00:32N 34°41' E 135°11'0 0.0
2016-Sep-21 23:32N 34°41' E 135°11'0 0.0
2016-Sep-21 22:32N 34°41' E 135°11'0 0.0
2016-Sep-21 19:26N 34°41' E 135°11'0 0.0
2016-Sep-21 16:32N 34°41' E 135°11'0 0.0
2016-Sep-21 09:32N 34°41' E 135°11'5 4.9
2016-Sep-21 08:33N 34°38' E 135°07'5 1.6
2016-Sep-21 05:33N 34°41' E 135°11'3 1.5
2016-Sep-21 03:33N 34°38' E 135°09'6 0.3
2016-Sep-20 10:33N 34°32' E 135°10'9 0.5
2016-Sep-19 16:25N 34°24' E 135°13'6 3.2
2016-Sep-19 14:33N 34°30' E 135°10'9 8.7
2016-Sep-19 13:33N 34°38' E 135°11'3 2.6
2016-Sep-19 12:32N 34°41' E 135°11'3 3.4
2016-Sep-19 11:33N 34°38' E 135°10'3 1.7
2016-Sep-19 09:32N 34°41' E 135°11'0 0.0
2016-Sep-19 07:33N 34°41' E 135°11'2 2.4
2016-Sep-19 06:33N 34°38' E 135°11'1 0.5
2016-Sep-19 03:33N 34°38' E 135°09'3 3.0
2016-Sep-19 02:30N 34°41' E 135°11'0 0.0
2016-Sep-19 00:24N 34°41' E 135°11'0 0.0
2016-Sep-18 19:30N 34°41' E 135°11'0 0.0
2016-Sep-18 15:30N 34°41' E 135°11'0 0.0
2016-Sep-18 14:30N 34°41' E 135°11'3 0.8
2016-Sep-18 10:33N 34°38' E 135°09'3 3.3
2016-Sep-18 09:33N 34°41' E 135°11'  
Track history (hours):
 
Tides and Currents Weather Stations Pressure Air Temp Water Temp Dewpoint Dewpoint Depression Visibility Wind Speed Wind Dir Waves Ship Positions

Concerto

Last reported at 2016-Sep-28 08:33 UTC. Time now 2016-Oct-01 13:49 UTC.
Position N 34°37' E 135°08'.

Length 74 m; draft 3 m.

Type: Passenger vessel. MMSI: 431000448.

Date/timePositionNaut miles runAvg speedWind from/ knotsBaromVisibWave heightAir tempDewpointWater temp
2016-Sep-28 08:33N 34°37' E 135°08'2 0.4
2016-Sep-28 03:33N 34°38' E 135°10'3 2.7
2016-Sep-28 02:30N 34°41' E 135°11'0 0.0
2016-Sep-28 01:30N 34°41' E 135°11'0 0.0
2016-Sep-27 23:30N 34°41' E 135°11'0 0.0
2016-Sep-27 19:30N 34°41' E 135°11'0 0.0
2016-Sep-27 14:30N 34°41' E 135°11'0 0.0
2016-Sep-27 13:30N 34°41' E 135°11'3 1.0
2016-Sep-27 10:33N 34°38' E 135°10'0 0.0
2016-Sep-26 11:33N 34°38' E 135°10'2 0.8
2016-Sep-26 08:33N 34°37' E 135°07'5 0.8
2016-Sep-26 02:24N 34°41' E 135°11'0 0.0
2016-Sep-26 01:30N 34°41' E 135°11'0 0.0
2016-Sep-26 00:24N 34°41' E 135°11'0 0.0
2016-Sep-25 21:24N 34°41' E 135°11'0 0.0
2016-Sep-25 17:24N 34°41' E 135°11'0 0.0
2016-Sep-25 16:30N 34°41' E 135°11'0 0.0
2016-Sep-25 15:24N 34°41' E 135°11'0 0.0
2016-Sep-25 14:24N 34°41' E 135°11'0 0.0
2016-Sep-25 12:30N 34°41' E 135°11'3 3.6
2016-Sep-25 11:33N 34°37' E 135°10'1 0.6
2016-Sep-25 10:33N 34°38' E 135°10'3 2.7
2016-Sep-25 09:29N 34°41' E 135°11'0 0.0
2016-Sep-25 07:33N 34°41' E 135°11'1 0.5
2016-Sep-25 04:33N 34°39' E 135°11'1 0.4
2016-Sep-25 00:32N 34°41' E 135°11'0 0.0
2016-Sep-24 22:32N 34°41' E 135°11'0 0.0
2016-Sep-24 21:20N 34°41' E 135°11'0 0.0
2016-Sep-24 19:32N 34°41' E 135°11'0 0.0
2016-Sep-24 18:32N 34°41' E 135°11'0 0.0
2016-Sep-24 17:32N 34°41' E 135°11'0 0.0
2016-Sep-24 16:26N 34°41' E 135°11'0 0.0
2016-Sep-24 14:32N 34°41' E 135°11'0 0.0
2016-Sep-24 12:26N 34°41' E 135°11'3 1.5
2016-Sep-24 10:33N 34°38' E 135°10'3 2.7
2016-Sep-24 09:29N 34°41' E 135°11'3 0.5
2016-Sep-24 03:33N 34°38' E 135°10'3 2.6
2016-Sep-24 02:29N 34°41' E 135°11'0 0.0
2016-Sep-24 01:29N 34°41' E 135°11'0 0.0
2016-Sep-24 00:29N 34°41' E 135°11'0 0.0
2016-Sep-23 19:29N 34°41' E 135°11'0 0.0
2016-Sep-23 17:29N 34°41' E 135°11'0 0.0
2016-Sep-23 16:29N 34°41' E 135°11'0 0.0
2016-Sep-23 15:29N 34°41' E 135°11'0 0.0
2016-Sep-23 13:29N 34°41' E 135°11'0 0.0
2016-Sep-23 09:31N 34°41' E 135°11'3 0.8
2016-Sep-23 06:33N 34°38' E 135°11'1 0.4
2016-Sep-23 04:33N 34°39' E 135°11'2 1.9
2016-Sep-23 03:33N 34°38' E 135°10'2 0.1
2016-Sep-22 04:33N 34°39' E 135°11'2 1.8
2016-Sep-22 03:33N 34°38' E 135°10'3 1.1
2016-Sep-22 00:32N 34°41' E 135°11'0 0.0
2016-Sep-21 23:32N 34°41' E 135°11'0 0.0
2016-Sep-21 22:32N 34°41' E 135°11'0 0.0
2016-Sep-21 19:26N 34°41' E 135°11'0 0.0
2016-Sep-21 16:32N 34°41' E 135°11'0 0.0
2016-Sep-21 09:32N 34°41' E 135°11'5 4.9
2016-Sep-21 08:33N 34°38' E 135°07'5 1.6
2016-Sep-21 05:33N 34°41' E 135°11'3 1.5
2016-Sep-21 03:33N 34°38' E 135°09'6 0.3
2016-Sep-20 10:33N 34°32' E 135°10'9 0.5
2016-Sep-19 16:25N 34°24' E 135°13'6 3.2
2016-Sep-19 14:33N 34°30' E 135°10'9 8.7
2016-Sep-19 13:33N 34°38' E 135°11'3 2.6
2016-Sep-19 12:32N 34°41' E 135°11'3 3.4
2016-Sep-19 11:33N 34°38' E 135°10'3 1.7
2016-Sep-19 09:32N 34°41' E 135°11'0 0.0
2016-Sep-19 07:33N 34°41' E 135°11'2 2.4
2016-Sep-19 06:33N 34°38' E 135°11'1 0.5
2016-Sep-19 03:33N 34°38' E 135°09'3 3.0
2016-Sep-19 02:30N 34°41' E 135°11'0 0.0
2016-Sep-19 00:24N 34°41' E 135°11'0 0.0
2016-Sep-18 19:30N 34°41' E 135°11'0 0.0
2016-Sep-18 15:30N 34°41' E 135°11'0 0.0
2016-Sep-18 14:30N 34°41' E 135°11'3 0.8
2016-Sep-18 10:33N 34°38' E 135°09'3 3.3
2016-Sep-18 09:33N 34°41' E 135°11'  

Dump ship's entire track history